Time;durP1;ratioP1;P1;durP2;ratioP2;P2;SDS_P1;SDS_P2;PMS_P1;PMS_P2;Temp;Humidity;BMP_temperature;BMP_pressure;BME280_temperature;BME280_humidity;BME280_pressure;Samples;Min_cycle;Max_cycle;Signal;HPM_P1;HPM_P2
2023/12/12 00:02:11;;;;;;;16.73;7.35;;;;;;;-9.70;83.16;100904.75;4889117;29;20067;-58
2023/12/12 00:04:42;;;;;;;14.23;6.75;;;;;;;-9.73;83.14;100904.53;4861083;29;20056;-58
2023/12/12 00:07:14;;;;;;;12.75;5.97;;;;;;;-9.62;83.90;100888.50;4870015;29;20076;-58
2023/12/12 00:09:44;;;;;;;12.80;6.05;;;;;;;-9.58;83.82;100895.56;4860523;29;20070;-59
2023/12/12 00:12:15;;;;;;;12.85;5.38;;;;;;;-9.66;83.66;100896.66;4870306;29;20064;-57
2023/12/12 00:14:45;;;;;;;8.40;4.75;;;;;;;-9.76;84.03;100894.16;4860436;29;20052;-58
2023/12/12 00:17:16;;;;;;;10.80;5.00;;;;;;;-10.02;84.66;100889.69;4870258;29;20116;-57
2023/12/12 00:19:46;;;;;;;11.15;3.88;;;;;;;-9.86;84.27;100896.78;4861133;29;20060;-57
2023/12/12 00:22:19;;;;;;;11.18;4.30;;;;;;;-9.87;84.24;100900.09;4870042;29;20056;-57
2023/12/12 00:24:49;;;;;;;8.90;3.88;;;;;;;-9.71;84.58;100897.03;4860991;29;20139;-57
2023/12/12 00:27:20;;;;;;;7.60;4.03;;;;;;;-9.52;84.34;100894.25;4845248;29;20707;-57
2023/12/12 00:29:50;;;;;;;12.80;3.90;;;;;;;-9.51;83.58;100893.47;4851784;29;20081;-59
2023/12/12 00:32:21;;;;;;;9.30;4.18;;;;;;;-9.53;83.82;100882.34;4842233;29;20061;-58
2023/12/12 00:34:52;;;;;;;6.93;3.60;;;;;;;-9.43;83.27;100900.00;4851988;29;20056;-59
2023/12/12 00:37:24;;;;;;;8.30;3.78;;;;;;;-9.41;83.16;100909.44;4842204;29;20060;-57
2023/12/12 00:39:54;;;;;;;9.35;3.60;;;;;;;-9.51;82.75;100901.06;4851160;29;20734;-56
2023/12/12 00:42:25;;;;;;;9.05;3.50;;;;;;;-9.47;82.97;100903.06;4845562;29;20044;-57
2023/12/12 00:44:55;;;;;;;6.15;3.03;;;;;;;-9.50;82.53;100897.78;4863243;29;20103;-58
2023/12/12 00:47:26;;;;;;;4.72;2.92;;;;;;;-9.49;83.21;100889.41;4853441;29;20063;-57
2023/12/12 00:49:56;;;;;;;4.70;2.88;;;;;;;-9.46;82.75;100899.75;4873504;29;20650;-57
2023/12/12 00:52:29;;;;;;;3.83;2.42;;;;;;;-9.51;82.59;100885.88;4866134;29;20148;-57
2023/12/12 00:55:00;;;;;;;6.18;3.05;;;;;;;-9.38;82.78;100889.44;4876568;29;20056;-58
2023/12/12 00:57:30;;;;;;;5.47;2.67;;;;;;;-9.30;83.03;100892.50;4869356;29;20045;-57
2023/12/12 01:00:01;;;;;;;4.78;2.45;;;;;;;-9.29;82.13;100894.25;4878776;29;20056;-57
2023/12/12 01:02:32;;;;;;;6.57;2.50;;;;;;;-9.20;82.48;100891.53;4866749;29;20167;-57
2023/12/12 01:05:02;;;;;;;6.18;2.65;;;;;;;-9.18;81.71;100883.28;4877059;29;20876;-58
2023/12/12 01:07:35;;;;;;;5.65;2.40;;;;;;;-9.20;81.61;100884.81;4865808;29;20116;-58
2023/12/12 01:10:06;;;;;;;5.88;2.35;;;;;;;-9.10;82.74;100890.56;4883873;29;20051;-59
2023/12/12 01:12:38;;;;;;;5.00;1.98;;;;;;;-10.13;81.09;100760.00;4881551;29;20044;-58
2023/12/12 01:15:10;;;;;;;5.68;2.10;;;;;;;-9.36;81.66;100897.09;4881683;29;20123;-57
2023/12/12 01:17:40;;;;;;;3.65;2.40;;;;;;;-9.26;82.43;100889.44;4872174;29;20103;-57
2023/12/12 01:20:11;;;;;;;4.57;2.00;;;;;;;-9.10;82.26;100885.50;4882501;29;20052;-57
2023/12/12 01:22:43;;;;;;;3.03;2.13;;;;;;;-9.00;81.77;100880.31;4873706;29;20060;-58
2023/12/12 01:25:14;;;;;;;6.57;2.30;;;;;;;-8.90;80.84;100875.13;4880435;29;20159;-58
2023/12/12 01:27:44;;;;;;;5.93;2.20;;;;;;;-8.91;80.80;100878.41;4871618;29;20052;-57
2023/12/12 01:30:15;;;;;;;4.35;2.22;;;;;;;-8.73;80.77;100889.84;4882138;29;20067;-58
2023/12/12 01:32:45;;;;;;;3.47;2.00;;;;;;;-8.58;79.61;100884.13;4873343;29;20142;-58
2023/12/12 01:35:16;;;;;;;6.97;3.25;;;;;;;-8.46;79.95;100872.31;4882070;29;20090;-57
2023/12/12 01:37:48;;;;;;;6.85;2.63;;;;;;;-8.58;78.18;100868.91;4871254;29;20137;-58
2023/12/12 01:40:19;;;;;;;4.45;1.73;;;;;;;-8.55;79.01;100869.13;4876619;29;20435;-57
2023/12/12 01:42:49;;;;;;;3.92;2.17;;;;;;;-8.59;78.26;100854.47;4879399;28;20053;-57
2023/12/12 01:45:19;;;;;;;3.22;1.70;;;;;;;-8.61;78.35;100853.47;4874498;29;20059;-57
2023/12/12 01:47:50;;;;;;;5.63;1.70;;;;;;;-8.62;77.85;100849.19;4875862;29;20156;-57
2023/12/12 01:50:21;;;;;;;5.85;2.13;;;;;;;-8.73;77.44;100859.47;4873744;29;20060;-59
2023/12/12 01:52:53;;;;;;;8.00;2.05;;;;;;;-8.75;78.16;100861.00;4879405;29;20135;-58
2023/12/12 01:55:24;;;;;;;3.20;1.70;;;;;;;-8.71;78.04;100847.78;4871993;29;20060;-57
2023/12/12 01:57:55;;;;;;;3.55;1.85;;;;;;;-8.62;78.25;100844.13;4881719;29;20691;-57
2023/12/12 02:00:25;;;;;;;3.42;2.08;;;;;;;-8.52;78.56;100843.97;4873076;29;20156;-57
2023/12/12 02:02:56;;;;;;;7.13;2.30;;;;;;;-8.30;77.96;100842.09;4881783;29;20060;-57
2023/12/12 02:05:29;;;;;;;4.22;1.90;;;;;;;-8.31;77.65;100836.91;4871157;29;20052;-58
2023/12/12 02:08:02;;;;;;;6.40;2.00;;;;;;;-8.41;77.79;100838.00;4880832;29;20752;-58
2023/12/12 02:10:33;;;;;;;6.10;2.30;;;;;;;-8.74;77.99;100766.50;4868014;29;20079;-58
2023/12/12 02:13:03;;;;;;;11.82;2.72;;;;;;;-8.30;77.88;100826.91;4882165;29;20071;-58
2023/12/12 02:15:34;;;;;;;11.77;2.85;;;;;;;-8.27;77.51;100829.63;4871955;29;20080;-58
2023/12/12 02:18:04;;;;;;;5.55;2.30;;;;;;;-8.15;77.65;100821.13;4880300;29;20801;-59
2023/12/12 02:20:35;;;;;;;3.50;2.28;;;;;;;-8.07;77.04;100830.09;4871068;29;20737;-57
2023/12/12 02:23:07;;;;;;;5.45;2.38;;;;;;;-7.88;77.45;100822.06;4882249;29;20407;-58
2023/12/12 02:25:39;;;;;;;4.38;2.15;;;;;;;-7.68;76.76;100815.78;4872348;29;20085;-57
2023/12/12 02:28:09;;;;;;;5.07;2.40;;;;;;;-7.75;75.95;100818.69;4872091;29;20049;-58
2023/12/12 02:30:42;;;;;;;3.67;2.30;;;;;;;-7.86;75.72;100820.53;4862329;29;20399;-57
2023/12/12 02:33:12;;;;;;;5.57;2.05;;;;;;;-7.91;75.75;100815.16;4872086;29;20111;-58
2023/12/12 02:35:43;;;;;;;6.85;2.53;;;;;;;-7.87;76.04;100813.66;4862488;29;20056;-58
2023/12/12 02:38:15;;;;;;;3.88;1.92;;;;;;;-7.67;76.35;100813.31;4871694;29;20203;-57
2023/12/12 02:40:46;;;;;;;4.55;2.20;;;;;;;-7.65;75.57;100808.34;4861781;29;20479;-58
2023/12/12 02:43:16;;;;;;;3.60;2.20;;;;;;;-7.55;75.90;100798.00;4870459;29;20061;-58
2023/12/12 02:45:47;;;;;;;4.03;2.15;;;;;;;-7.72;74.93;100794.38;4861944;29;20449;-58
2023/12/12 02:48:18;;;;;;;7.75;1.90;;;;;;;-7.83;75.55;100788.63;4871588;29;20052;-58
2023/12/12 02:50:48;;;;;;;5.60;2.50;;;;;;;-7.93;76.04;100782.84;4860480;29;20052;-57
2023/12/12 02:53:20;;;;;;;4.78;1.95;;;;;;;-8.08;76.05;100797.94;4866613;29;20067;-57
2023/12/12 02:55:51;;;;;;;7.03;2.40;;;;;;;-8.25;76.27;100790.06;4881444;29;20052;-58
2023/12/12 02:58:21;;;;;;;5.60;1.98;;;;;;;-8.28;76.62;100794.06;4863401;29;20075;-58
2023/12/12 03:00:52;;;;;;;3.67;2.00;;;;;;;-8.26;76.84;100803.53;4874795;29;20059;-58
2023/12/12 03:03:22;;;;;;;5.88;2.50;;;;;;;-8.36;77.04;100793.53;4871038;29;20052;-58
2023/12/12 03:05:53;;;;;;;6.82;2.50;;;;;;;-8.42;77.54;100794.81;4880654;29;20460;-57
2023/12/12 03:08:25;;;;;;;9.07;3.05;;;;;;;-8.25;78.02;100792.59;4869877;29;20139;-56
2023/12/12 03:10:56;;;;;;;7.60;2.90;;;;;;;-8.34;76.85;100784.38;4879975;29;20060;-57
2023/12/12 03:13:26;;;;;;;8.48;3.83;;;;;;;-8.24;77.35;100778.25;4870512;29;20063;-57
2023/12/12 03:15:56;;;;;;;7.57;4.05;;;;;;;-8.18;77.40;100780.34;4879683;29;20055;-57
2023/12/12 03:18:27;;;;;;;7.97;3.55;;;;;;;-8.09;77.52;100771.66;4868654;29;20056;-57
2023/12/12 03:20:59;;;;;;;4.53;2.80;;;;;;;-8.09;76.97;100768.25;4879618;29;20067;-58
2023/12/12 03:23:32;;;;;;;9.40;3.00;;;;;;;-8.12;77.83;100765.53;4870663;29;20064;-58
2023/12/12 03:26:08;;;;;;;8.68;3.10;;;;;;;-8.17;77.65;100739.00;4880610;29;20071;-57
2023/12/12 03:28:38;;;;;;;4.78;2.95;;;;;;;-7.99;77.29;100744.38;4871066;29;20141;-57
2023/12/12 03:31:09;;;;;;;9.32;3.00;;;;;;;-7.95;76.77;100743.81;4875974;29;20052;-58
2023/12/12 03:33:39;;;;;;;7.55;3.05;;;;;;;-8.02;76.66;100734.91;4869643;29;20630;-58
2023/12/12 03:36:11;;;;;;;9.70;3.25;;;;;;;-8.09;77.05;100725.16;4874236;29;20055;-58
2023/12/12 03:38:43;;;;;;;6.75;3.05;;;;;;;-8.19;77.32;100722.78;4866566;29;20059;-58
2023/12/12 03:41:14;;;;;;;7.55;3.25;;;;;;;-8.13;77.63;100721.53;4878033;29;20048;-58
2023/12/12 03:43:44;;;;;;;7.85;4.50;;;;;;;-8.07;77.38;100719.41;4869042;29;20237;-57
2023/12/12 03:46:15;;;;;;;8.20;3.78;;;;;;;-8.05;77.29;100722.03;4879796;29;20136;-58
2023/12/12 03:48:46;;;;;;;8.75;3.55;;;;;;;-8.09;77.61;100715.00;4870258;29;20052;-57
2023/12/12 03:51:16;;;;;;;9.82;3.58;;;;;;;-7.98;77.97;100714.06;4879889;29;20055;-56
2023/12/12 03:53:48;;;;;;;5.88;3.30;;;;;;;-8.10;77.88;100672.69;4865975;29;20139;-57
2023/12/12 03:56:19;;;;;;;6.60;3.22;;;;;;;-7.75;77.32;100722.28;4877063;29;20055;-56
2023/12/12 03:58:49;;;;;;;6.80;2.97;;;;;;;-7.70;77.17;100726.84;4877073;29;20072;-56
2023/12/12 04:01:20;;;;;;;7.30;3.30;;;;;;;-7.87;77.04;100722.34;4871654;29;20119;-56
2023/12/12 04:03:51;;;;;;;9.88;3.70;;;;;;;-8.15;77.11;100700.28;4877337;28;20080;-57
2023/12/12 04:06:21;;;;;;;10.48;3.50;;;;;;;-8.12;77.61;100709.75;4869339;29;20060;-56
2023/12/12 04:08:53;;;;;;;8.50;3.58;;;;;;;-8.22;77.95;100713.34;4877574;29;20063;-56
2023/12/12 04:11:24;;;;;;;11.10;3.55;;;;;;;-8.31;78.39;100693.34;4868536;29;20056;-56
2023/12/12 04:13:55;;;;;;;6.85;3.30;;;;;;;-8.22;78.61;100707.38;4879277;29;20135;-55
2023/12/12 04:16:25;;;;;;;9.38;3.72;;;;;;;-8.23;78.37;100710.72;4869294;29;20068;-55
2023/12/12 04:18:56;;;;;;;9.70;4.10;;;;;;;-8.22;78.53;100712.47;4878947;29;20617;-56
2023/12/12 04:21:26;;;;;;;9.27;3.88;;;;;;;-8.31;78.77;100706.00;4870151;29;20684;-56
2023/12/12 04:23:58;;;;;;;8.20;3.78;;;;;;;-8.34;78.98;100708.31;4879149;29;20491;-57
2023/12/12 04:26:31;;;;;;;10.38;4.22;;;;;;;-8.23;79.92;100710.72;4866707;29;20056;-56
2023/12/12 04:29:03;;;;;;;10.50;4.60;;;;;;;-8.15;79.74;100712.09;4878138;29;20052;-56
2023/12/12 04:31:35;;;;;;;6.90;3.33;;;;;;;-8.06;79.33;100707.63;4868112;29;20120;-58
2023/12/12 04:34:05;;;;;;;8.60;4.53;;;;;;;-8.30;79.86;100641.84;4878060;29;20060;-58
2023/12/12 04:36:36;;;;;;;14.95;5.43;;;;;;;-7.89;79.51;100694.34;4869260;29;20054;-59
2023/12/12 04:39:12;;;;;;;19.02;7.53;;;;;;;-7.84;79.48;100694.63;4879707;29;20048;-59
2023/12/12 04:41:42;;;;;;;18.45;7.25;;;;;;;-7.81;79.04;100698.28;4870016;29;20119;-56
2023/12/12 04:44:13;;;;;;;13.73;6.57;;;;;;;-7.89;79.22;100704.50;4878877;29;20119;-59
2023/12/12 04:46:43;;;;;;;11.00;5.47;;;;;;;-7.79;79.73;100702.56;4871161;29;20052;-58
2023/12/12 04:49:14;;;;;;;9.93;4.32;;;;;;;-7.79;79.24;100710.16;4879000;29;20060;-59
2023/12/12 04:51:45;;;;;;;8.52;3.97;;;;;;;-7.93;79.41;100706.75;4867910;29;20120;-57
2023/12/12 04:54:19;;;;;;;9.40;4.13;;;;;;;-7.86;79.86;100704.72;4878464;29;20147;-58
2023/12/12 04:56:49;;;;;;;10.25;4.15;;;;;;;-7.71;79.78;100698.84;4866738;29;20495;-57
2023/12/12 04:59:19;;;;;;;7.65;4.40;;;;;;;-7.83;79.68;100692.22;4872303;29;20119;-57
2023/12/12 05:01:50;;;;;;;8.48;2.92;;;;;;;-8.05;80.23;100686.53;4876287;29;20056;-57
2023/12/12 05:04:20;;;;;;;6.05;2.83;;;;;;;-8.23;80.51;100680.28;4867338;29;20052;-57
2023/12/12 05:06:51;;;;;;;3.67;2.55;;;;;;;-8.28;81.42;100698.59;4876158;29;20048;-57
2023/12/12 05:09:23;;;;;;;4.95;2.75;;;;;;;-8.27;81.62;100697.81;4866779;29;20135;-58
2023/12/12 05:11:54;;;;;;;8.10;2.85;;;;;;;-8.19;81.44;100694.91;4877860;29;20052;-58
2023/12/12 05:14:24;;;;;;;4.55;2.88;;;;;;;-8.23;81.29;100687.91;4869520;29;20052;-57
2023/12/12 05:16:55;;;;;;;9.77;2.58;;;;;;;-8.17;82.12;100685.75;4880181;29;20048;-57
2023/12/12 05:19:38;;;;;;;3.88;2.78;;;;;;;-8.12;81.93;100695.41;4869426;29;20622;-59
2023/12/12 05:22:09;;;;;;;7.72;3.03;;;;;;;-8.11;81.94;100691.19;4877891;29;20056;-58
2023/12/12 05:24:41;;;;;;;5.75;2.90;;;;;;;-8.13;81.99;100688.59;4869760;29;20061;-57
2023/12/12 05:27:11;;;;;;;7.90;2.70;;;;;;;-8.25;81.86;100696.25;4879323;29;20067;-58
2023/12/12 05:29:42;;;;;;;6.30;2.60;;;;;;;-8.25;82.35;100693.72;4866773;29;20381;-58
2023/12/12 05:32:12;;;;;;;8.50;3.17;;;;;;;-8.26;82.65;100691.97;4877662;29;20056;-58
2023/12/12 05:34:43;;;;;;;8.40;3.00;;;;;;;-8.15;83.24;100689.28;4869528;29;20079;-59
2023/12/12 05:37:13;;;;;;;7.90;3.20;;;;;;;-8.18;82.99;100694.16;4879512;29;20070;-59
2023/12/12 05:39:46;;;;;;;6.15;3.08;;;;;;;-8.13;83.17;100692.78;4868264;29;20826;-58
2023/12/12 05:42:16;;;;;;;7.35;3.55;;;;;;;-8.12;83.06;100695.41;4877392;29;20665;-58
2023/12/12 05:44:47;;;;;;;7.60;2.85;;;;;;;-8.07;83.49;100688.09;4868318;29;20055;-59
2023/12/12 05:47:17;;;;;;;9.43;3.55;;;;;;;-8.08;82.75;100694.84;4877548;29;20059;-58
2023/12/12 05:49:48;;;;;;;6.78;2.70;;;;;;;-8.09;83.15;100687.13;4868574;29;20147;-58
2023/12/12 05:52:18;;;;;;;6.45;2.70;;;;;;;-8.17;83.18;100690.81;4875611;29;20055;-58
2023/12/12 05:54:50;;;;;;;6.00;2.72;;;;;;;-8.44;83.72;100680.66;4880769;29;20048;-57
2023/12/12 05:57:21;;;;;;;6.03;2.75;;;;;;;-8.49;84.26;100687.06;4871846;29;20057;-57
2023/12/12 05:59:51;;;;;;;4.97;2.75;;;;;;;-8.50;84.28;100695.47;4881084;29;20044;-57
2023/12/12 06:02:22;;;;;;;4.85;2.60;;;;;;;-8.62;85.13;100699.72;4870285;29;20099;-57
2023/12/12 06:04:52;;;;;;;7.00;2.58;;;;;;;-8.65;85.72;100695.31;4880772;29;20958;-59
2023/12/12 06:07:23;;;;;;;6.80;3.03;;;;;;;-8.56;86.49;100700.09;4870779;29;20607;-59
2023/12/12 06:09:56;;;;;;;6.82;2.40;;;;;;;-8.60;85.94;100704.09;4880776;29;20147;-56
2023/12/12 06:12:26;;;;;;;8.93;2.95;;;;;;;-8.52;86.51;100692.81;4872344;29;20040;-57
2023/12/12 06:14:57;;;;;;;5.88;2.65;;;;;;;-8.59;86.40;100700.78;4881688;29;20511;-56
2023/12/12 06:17:27;;;;;;;4.78;2.97;;;;;;;-8.66;86.34;100692.66;4871804;29;20048;-56
2023/12/12 06:19:58;;;;;;;6.78;3.05;;;;;;;-8.73;86.81;100692.28;4880534;29;20067;-57
2023/12/12 06:22:29;;;;;;;10.70;3.00;;;;;;;-8.69;87.08;100688.28;4872028;29;20052;-57
2023/12/12 06:25:01;;;;;;;9.55;3.28;;;;;;;-8.76;86.97;100687.00;4880273;29;20060;-57
2023/12/12 06:27:32;;;;;;;4.88;3.00;;;;;;;-8.75;87.30;100690.41;4864704;29;20062;-58
2023/12/12 06:30:03;;;;;;;6.93;3.22;;;;;;;-8.82;87.68;100678.97;4878443;29;20056;-59
2023/12/12 06:32:33;;;;;;;9.20;2.95;;;;;;;-8.73;88.04;100687.22;4868391;29;20057;-58
2023/12/12 06:35:04;;;;;;;6.70;2.90;;;;;;;-8.72;88.02;100688.06;4881210;29;20053;-57
2023/12/12 06:37:35;;;;;;;12.10;3.75;;;;;;;-8.78;88.07;100688.56;4869247;29;20060;-57
2023/12/12 06:40:12;;;;;;;4.72;2.60;;;;;;;-8.70;88.54;100689.94;4881122;29;20087;-57
2023/12/12 06:42:43;;;;;;;9.93;2.85;;;;;;;-8.69;88.65;100673.94;4871901;29;20056;-58
2023/12/12 06:45:14;;;;;;;5.72;3.03;;;;;;;-8.63;88.75;100678.56;4881941;29;20112;-58
2023/12/12 06:47:44;;;;;;;6.13;2.90;;;;;;;-8.51;88.43;100683.56;4871284;29;20511;-58
2023/12/12 06:50:15;;;;;;;4.97;2.90;;;;;;;-8.50;88.59;100685.31;4875154;29;20059;-57
2023/12/12 06:52:45;;;;;;;4.53;2.45;;;;;;;-8.47;88.44;100685.53;4863028;29;20556;-58
2023/12/12 06:55:17;;;;;;;8.73;2.92;;;;;;;-8.48;88.78;100678.72;4877230;29;20154;-58
2023/12/12 06:57:48;;;;;;;5.72;3.00;;;;;;;-8.49;88.45;100684.53;4880615;29;20052;-58
2023/12/12 07:00:19;;;;;;;3.85;2.78;;;;;;;-8.53;88.69;100685.13;4888488;29;20428;-57
2023/12/12 07:02:50;;;;;;;5.43;2.70;;;;;;;-8.57;88.94;100693.28;4884822;29;20650;-58
2023/12/12 07:05:20;;;;;;;7.25;2.47;;;;;;;-8.70;88.37;100682.34;4862034;29;20064;-58
2023/12/12 07:07:51;;;;;;;3.03;2.17;;;;;;;-8.72;88.70;100683.88;4871734;29;20059;-58
2023/12/12 07:10:23;;;;;;;2.78;1.95;;;;;;;-8.79;88.25;100690.97;4862537;29;20074;-58
2023/12/12 07:12:55;;;;;;;4.15;2.20;;;;;;;-8.83;88.66;100679.78;4871525;29;20128;-57
2023/12/12 07:15:25;;;;;;;5.70;2.35;;;;;;;-8.77;89.12;100697.91;4861602;29;20151;-58
2023/12/12 07:17:56;;;;;;;8.48;2.50;;;;;;;-8.75;89.28;100701.41;4871083;29;20055;-58
2023/12/12 07:20:26;;;;;;;5.70;2.10;;;;;;;-8.78;88.79;100703.75;4861638;29;20048;-57
2023/12/12 07:22:57;;;;;;;6.30;2.20;;;;;;;-8.89;88.62;100699.59;4871211;29;20507;-57
2023/12/12 07:25:29;;;;;;;6.10;2.22;;;;;;;-9.00;88.41;100703.06;4862363;29;20052;-57
2023/12/12 07:27:59;;;;;;;6.18;2.35;;;;;;;-9.11;88.58;100707.38;4870780;29;20052;-57
2023/12/12 07:30:30;;;;;;;3.10;2.05;;;;;;;-9.10;89.02;100710.81;4861561;29;20164;-57
2023/12/12 07:33:00;;;;;;;3.95;2.40;;;;;;;-9.14;89.34;100705.50;4870297;29;20143;-58
2023/12/12 07:35:32;;;;;;;13.00;2.90;;;;;;;-9.16;89.76;100704.56;4861273;29;20052;-58
2023/12/12 07:38:05;;;;;;;6.45;2.70;;;;;;;-9.15;89.96;100701.22;4861392;29;20540;-60
2023/12/12 07:40:37;;;;;;;5.45;3.17;;;;;;;-9.14;90.34;100702.97;4853642;29;20067;-59
2023/12/12 07:43:07;;;;;;;4.30;2.80;;;;;;;-9.14;90.37;100702.97;4858846;29;20139;-59
2023/12/12 07:45:38;;;;;;;4.50;2.95;;;;;;;-9.18;90.49;100695.09;4842489;29;20583;-59
2023/12/12 07:48:08;;;;;;;6.38;3.13;;;;;;;-9.21;90.68;100694.84;4860899;29;20052;-59
2023/12/12 07:50:39;;;;;;;6.28;3.10;;;;;;;-9.28;90.77;100692.66;4856125;29;20054;-59
2023/12/12 07:53:10;;;;;;;11.43;4.65;;;;;;;-9.32;90.82;100695.78;4854899;29;20389;-58
2023/12/12 07:55:42;;;;;;;15.75;5.20;;;;;;;-9.37;91.12;100692.94;4859270;29;20095;-58
2023/12/12 07:58:13;;;;;;;10.57;4.15;;;;;;;-9.37;91.42;100697.97;4888947;29;20761;-59
2023/12/12 08:00:44;;;;;;;9.20;3.40;;;;;;;-9.42;91.61;100694.25;4879067;29;20431;-58
2023/12/12 08:03:14;;;;;;;8.85;3.38;;;;;;;-9.48;91.77;100698.88;4888974;29;20861;-59
2023/12/12 08:05:45;;;;;;;10.85;3.35;;;;;;;-9.48;91.95;100693.81;4863434;29;20766;-58
2023/12/12 08:08:15;;;;;;;5.85;3.35;;;;;;;-9.48;92.28;100687.13;4870337;29;20083;-58
2023/12/12 08:10:47;;;;;;;7.28;3.20;;;;;;;-9.45;92.44;100687.31;4860934;29;20100;-59
2023/12/12 08:13:18;;;;;;;7.63;3.13;;;;;;;-9.41;92.65;100685.88;4870766;29;20064;-59
2023/12/12 08:15:48;;;;;;;7.82;3.88;;;;;;;-9.39;92.55;100684.34;4860366;29;20155;-58
2023/12/12 08:18:19;;;;;;;6.35;3.20;;;;;;;-9.46;92.23;100687.22;4865117;29;20155;-59
2023/12/12 08:20:49;;;;;;;6.97;2.90;;;;;;;-9.59;92.16;100676.22;4870142;29;20053;-55
2023/12/12 08:23:20;;;;;;;4.28;2.75;;;;;;;-9.59;92.01;100673.69;4861783;29;20060;-56
2023/12/12 08:25:52;;;;;;;6.85;3.38;;;;;;;-9.50;92.09;100685.25;4870732;29;20140;-58
2023/12/12 08:28:25;;;;;;;4.72;3.20;;;;;;;-9.56;92.01;100685.69;4860744;29;20092;-57
2023/12/12 08:30:56;;;;;;;8.77;2.65;;;;;;;-9.60;91.88;100689.66;4869380;29;20067;-56
2023/12/12 08:33:27;;;;;;;4.20;2.60;;;;;;;-9.66;91.85;100689.25;4844093;29;20563;-57
2023/12/12 08:35:57;;;;;;;4.28;2.38;;;;;;;-9.61;91.76;100682.84;4868486;29;20147;-57
2023/12/12 08:38:28;;;;;;;4.72;2.20;;;;;;;-9.66;91.68;100684.19;4860348;29;20060;-58
2023/12/12 08:41:01;;;;;;;6.50;2.80;;;;;;;-9.66;91.60;100674.06;4858687;29;20057;-57
2023/12/12 08:43:32;;;;;;;8.98;5.05;;;;;;;-9.62;91.97;100676.03;4842230;29;20072;-58
2023/12/12 08:46:04;;;;;;;7.43;4.53;;;;;;;-9.61;91.74;100676.88;4857026;29;20116;-58
2023/12/12 08:48:34;;;;;;;8.48;4.00;;;;;;;-9.59;91.38;100671.16;4841745;29;20084;-58
2023/12/12 08:51:05;;;;;;;9.80;3.40;;;;;;;-9.71;90.75;100665.25;4851167;29;20053;-58
2023/12/12 08:53:36;;;;;;;7.75;3.00;;;;;;;-9.71;90.94;100672.84;4841714;29;20087;-57
2023/12/12 08:56:16;;;;;;;4.47;2.50;;;;;;;-9.91;90.12;100670.53;4861993;29;20119;-58
2023/12/12 08:58:47;;;;;;;4.10;2.65;;;;;;;-10.05;90.45;100660.34;4860670;29;20064;-58
2023/12/12 09:01:18;;;;;;;5.32;2.65;;;;;;;-10.17;90.17;100667.03;4870204;29;20049;-57
2023/12/12 09:03:49;;;;;;;12.32;3.03;;;;;;;-10.14;90.31;100671.44;4860368;29;20072;-58
2023/12/12 09:06:19;;;;;;;4.95;2.50;;;;;;;-10.08;90.72;100667.69;4865940;29;20078;-58
2023/12/12 09:08:50;;;;;;;15.00;4.53;;;;;;;-10.10;90.36;100675.94;4869361;29;20763;-57
2023/12/12 09:11:21;;;;;;;14.27;4.10;;;;;;;-10.24;89.64;100674.94;4861729;29;20056;-57
2023/12/12 09:13:51;;;;;;;5.57;3.00;;;;;;;-10.37;89.73;100667.25;4869780;29;20083;-58
2023/12/12 09:16:21;;;;;;;6.30;3.67;;;;;;;-10.38;89.57;100675.59;4860484;29;20055;-57
2023/12/12 09:18:58;;;;;;;13.20;8.73;;;;;;;-10.56;89.16;100678.53;4869684;29;20052;-57
2023/12/12 09:21:28;;;;;;;7.18;4.55;;;;;;;-10.75;89.54;100677.94;4860005;29;20626;-58
2023/12/12 09:23:59;;;;;;;10.55;4.07;;;;;;;-11.14;89.61;100631.25;4869422;29;20061;-57
2023/12/12 09:26:31;;;;;;;8.57;3.92;;;;;;;-10.86;90.00;100675.50;4859401;29;20052;-57
2023/12/12 09:29:01;;;;;;;15.85;7.93;;;;;;;-10.84;90.32;100677.25;4871153;29;20789;-58
2023/12/12 09:31:32;;;;;;;24.92;15.73;;;;;;;-10.91;89.75;100675.88;4863933;29;20068;-58
2023/12/12 09:34:03;;;;;;;17.10;10.95;;;;;;;-11.17;89.38;100651.22;4873453;29;20476;-58
2023/12/12 09:36:33;;;;;;;6.85;4.35;;;;;;;-11.17;89.27;100682.38;4863525;29;20060;-58
2023/12/12 09:39:07;;;;;;;6.40;3.30;;;;;;;-11.26;89.48;100680.78;4872908;29;20060;-58
2023/12/12 09:41:40;;;;;;;7.45;2.80;;;;;;;-11.34;89.75;100688.63;4863420;29;20060;-58
2023/12/12 09:44:17;;;;;;;10.50;5.15;;;;;;;-11.36;90.20;100674.16;4872564;29;20057;-58
2023/12/12 09:46:48;;;;;;;12.10;6.97;;;;;;;-11.76;90.17;100631.59;4863524;29;20048;-57
2023/12/12 09:49:20;;;;;;;5.05;2.92;;;;;;;-11.49;89.93;100682.41;4866672;29;20061;-58
2023/12/12 09:51:53;;;;;;;4.50;2.70;;;;;;;-11.59;89.71;100684.97;4878426;29;20048;-56
2023/12/12 09:54:26;;;;;;;6.57;2.85;;;;;;;-11.67;89.78;100683.50;4868074;29;20135;-58
2023/12/12 09:56:58;;;;;;;6.25;2.45;;;;;;;-11.74;90.06;100689.69;4890641;29;20052;-58
2023/12/12 09:59:28;;;;;;;5.10;2.38;;;;;;;-11.76;89.93;100676.97;4881506;29;20548;-58
2023/12/12 10:02:00;;;;;;;5.22;2.20;;;;;;;-11.81;89.69;100678.25;4879985;29;20813;-57
2023/12/12 10:04:42;;;;;;;7.15;3.22;;;;;;;-11.92;89.67;100688.28;4862825;29;20057;-58
2023/12/12 10:07:15;;;;;;;5.82;2.40;;;;;;;-11.92;90.11;100688.28;4871874;29;20064;-59
2023/12/12 10:09:46;;;;;;;3.90;3.10;;;;;;;-11.87;89.88;100687.88;4866165;29;20067;-58
2023/12/12 10:12:18;;;;;;;3.35;2.45;;;;;;;-11.90;90.01;100682.63;4864681;29;20759;-58
2023/12/12 10:14:49;;;;;;;7.70;2.50;;;;;;;-11.88;89.69;100691.19;4870286;29;20056;-57
2023/12/12 10:17:23;;;;;;;5.35;2.75;;;;;;;-11.87;89.74;100690.41;4876887;29;20146;-57
2023/12/12 10:20:00;;;;;;;4.72;2.85;;;;;;;-11.91;89.63;100690.91;4882253;29;20116;-59
2023/12/12 10:22:32;;;;;;;4.72;2.53;;;;;;;-11.93;89.24;100691.56;4871675;29;20059;-58
2023/12/12 10:25:14;;;;;;;5.68;2.22;;;;;;;-12.09;88.85;100679.38;4878015;29;20064;-58
2023/12/12 10:27:47;;;;;;;3.35;2.15;;;;;;;-12.16;89.02;100658.72;4862975;29;20846;-58
2023/12/12 10:30:18;;;;;;;7.20;4.88;;;;;;;-12.01;88.76;100690.94;4873098;29;20491;-57
2023/12/12 10:32:51;;;;;;;11.35;7.50;;;;;;;-12.07;88.35;100687.94;4863023;29;20510;-57
2023/12/12 10:35:28;;;;;;;13.52;7.78;;;;;;;-12.44;88.43;100639.66;4863143;29;20063;-58
2023/12/12 10:38:06;;;;;;;7.65;4.28;;;;;;;-12.16;89.00;100688.06;4881740;29;20535;-59
2023/12/12 10:40:37;;;;;;;5.45;3.65;;;;;;;-12.12;88.84;100694.25;4870506;29;20048;-57
2023/12/12 10:43:09;;;;;;;7.95;3.60;;;;;;;-12.14;88.92;100705.84;4881152;29;20159;-57
2023/12/12 10:45:43;;;;;;;5.38;2.70;;;;;;;-12.17;88.81;100697.28;4874710;29;20057;-57
2023/12/12 10:48:17;;;;;;;7.93;3.15;;;;;;;-12.23;88.60;100711.91;4881490;29;20096;-59
2023/12/12 10:50:52;;;;;;;10.15;3.33;;;;;;;-12.43;88.16;100677.56;4861906;29;20064;-59
2023/12/12 10:53:24;;;;;;;7.07;3.15;;;;;;;-12.31;87.84;100712.91;4862882;29;20057;-58
2023/12/12 10:55:57;;;;;;;4.30;2.88;;;;;;;-12.39;87.58;100706.38;4877578;29;20119;-57
2023/12/12 10:58:29;;;;;;;12.85;5.15;;;;;;;-12.55;86.96;100703.34;4862931;29;20048;-57
2023/12/12 11:01:02;;;;;;;11.13;5.38;;;;;;;-12.80;86.36;100708.88;4871861;29;20052;-57
2023/12/12 11:03:33;;;;;;;6.32;3.28;;;;;;;-12.95;86.15;100712.63;4862460;29;20049;-58
2023/12/12 11:06:03;;;;;;;7.65;3.78;;;;;;;-13.11;86.42;100716.38;4871332;29;20502;-57
2023/12/12 11:08:35;;;;;;;7.32;3.08;;;;;;;-14.18;86.36;100531.38;4862375;29;20144;-57
2023/12/12 11:11:10;;;;;;;3.40;2.50;;;;;;;-13.28;86.71;100706.53;4871861;29;20124;-57
2023/12/12 11:13:44;;;;;;;8.18;5.53;;;;;;;-13.56;86.76;100661.47;4862914;29;20063;-59
2023/12/12 11:16:15;;;;;;;9.23;5.20;;;;;;;-13.27;87.24;100710.84;4871777;29;20056;-59
2023/12/12 11:18:48;;;;;;;9.02;5.85;;;;;;;-13.33;87.24;100715.31;4861387;29;20063;-58
2023/12/12 11:21:45;;;;;;;16.05;10.55;;;;;;;-13.34;87.80;100713.56;4870772;29;20071;-57
2023/12/12 11:24:16;;;;;;;9.30;4.97;;;;;;;-13.30;88.07;100719.00;4871566;29;20060;-57
2023/12/12 11:26:49;;;;;;;6.32;3.10;;;;;;;-13.22;88.29;100707.03;4861526;29;20056;-58
2023/12/12 11:29:26;;;;;;;2.60;2.22;;;;;;;-13.18;88.29;100713.19;4865250;29;20112;-58
2023/12/12 11:32:02;;;;;;;11.90;2.72;;;;;;;-13.57;87.91;100657.19;4871016;29;20064;-58
2023/12/12 11:34:43;;;;;;;3.83;2.50;;;;;;;-13.28;87.87;100721.63;4862207;29;20140;-58
2023/12/12 11:37:14;;;;;;;5.15;2.63;;;;;;;-13.31;88.06;100711.31;4870938;29;20089;-58
2023/12/12 11:39:49;;;;;;;7.57;3.40;;;;;;;-13.47;88.00;100687.41;4860857;29;20913;-58
2023/12/12 11:42:22;;;;;;;7.28;4.13;;;;;;;-13.33;87.80;100707.78;4863508;29;20151;-57